sensor_id;sensor_type;location;lat;lon;timestamp;P1;durP1;ratioP1;P2;durP2;ratioP2
23768;SDS011;12064;50.890;5.424;2023-05-01T00:01:11;2.25;;;1.90;;
23768;SDS011;12064;50.890;5.424;2023-05-01T00:10:01;2.47;;;1.80;;
23768;SDS011;12064;50.890;5.424;2023-05-01T00:18:52;2.65;;;2.03;;
23768;SDS011;12064;50.890;5.424;2023-05-01T00:27:44;2.10;;;1.90;;
23768;SDS011;12064;50.890;5.424;2023-05-01T00:36:34;1.95;;;1.75;;
23768;SDS011;12064;50.890;5.424;2023-05-01T00:45:25;2.00;;;1.80;;
23768;SDS011;12064;50.890;5.424;2023-05-01T00:54:16;1.95;;;1.80;;
23768;SDS011;12064;50.890;5.424;2023-05-01T01:03:07;2.97;;;1.90;;
23768;SDS011;12064;50.890;5.424;2023-05-01T01:21:00;1.95;;;1.80;;
23768;SDS011;12064;50.890;5.424;2023-05-01T01:48:18;2.10;;;1.90;;
23768;SDS011;12064;50.890;5.424;2023-05-01T01:57:13;1.90;;;1.80;;
23768;SDS011;12064;50.890;5.424;2023-05-01T02:06:06;2.08;;;1.98;;
23768;SDS011;12064;50.890;5.424;2023-05-01T02:14:57;2.80;;;2.10;;
23768;SDS011;12064;50.890;5.424;2023-05-01T02:23:49;3.17;;;1.92;;
23768;SDS011;12064;50.890;5.424;2023-05-01T02:32:41;1.83;;;1.73;;
23768;SDS011;12064;50.890;5.424;2023-05-01T02:41:32;2.35;;;1.70;;
23768;SDS011;12064;50.890;5.424;2023-05-01T02:50:24;1.77;;;1.67;;
23768;SDS011;12064;50.890;5.424;2023-05-01T02:59:19;1.70;;;1.60;;
23768;SDS011;12064;50.890;5.424;2023-05-01T03:08:09;1.90;;;1.80;;
23768;SDS011;12064;50.890;5.424;2023-05-01T03:17:00;1.70;;;1.60;;
23768;SDS011;12064;50.890;5.424;2023-05-01T03:25:51;1.70;;;1.60;;
23768;SDS011;12064;50.890;5.424;2023-05-01T03:34:41;2.23;;;1.70;;
23768;SDS011;12064;50.890;5.424;2023-05-01T03:43:33;1.90;;;1.80;;
23768;SDS011;12064;50.890;5.424;2023-05-01T03:52:26;2.58;;;1.70;;
23768;SDS011;12064;50.890;5.424;2023-05-01T04:01:17;1.95;;;1.70;;
23768;SDS011;12064;50.890;5.424;2023-05-01T04:10:09;1.73;;;1.60;;
23768;SDS011;12064;50.890;5.424;2023-05-01T04:19:00;1.70;;;1.60;;
23768;SDS011;12064;50.890;5.424;2023-05-01T04:27:50;2.67;;;1.83;;
23768;SDS011;12064;50.890;5.424;2023-05-01T04:36:41;2.40;;;1.85;;
23768;SDS011;12064;50.890;5.424;2023-05-01T04:45:32;2.13;;;1.45;;
23768;SDS011;12064;50.890;5.424;2023-05-01T04:54:22;2.05;;;1.55;;
23768;SDS011;12064;50.890;5.424;2023-05-01T05:03:14;4.03;;;1.90;;
23768;SDS011;12064;50.890;5.424;2023-05-01T05:12:07;3.85;;;1.75;;
23768;SDS011;12064;50.890;5.424;2023-05-01T05:21:01;2.53;;;1.63;;
23768;SDS011;12064;50.890;5.424;2023-05-01T05:29:53;1.70;;;1.60;;
23768;SDS011;12064;50.890;5.424;2023-05-01T05:38:43;1.53;;;1.43;;
23768;SDS011;12064;50.890;5.424;2023-05-01T05:47:34;4.22;;;2.00;;
23768;SDS011;12064;50.890;5.424;2023-05-01T05:56:25;2.33;;;1.77;;
23768;SDS011;12064;50.890;5.424;2023-05-01T06:05:16;2.00;;;1.80;;
23768;SDS011;12064;50.890;5.424;2023-05-01T06:14:07;1.75;;;1.65;;
23768;SDS011;12064;50.890;5.424;2023-05-01T06:23:01;2.22;;;1.70;;
23768;SDS011;12064;50.890;5.424;2023-05-01T06:31:51;2.60;;;1.90;;
23768;SDS011;12064;50.890;5.424;2023-05-01T06:40:42;2.60;;;1.88;;
23768;SDS011;12064;50.890;5.424;2023-05-01T06:49:35;1.80;;;1.70;;
23768;SDS011;12064;50.890;5.424;2023-05-01T06:58:26;1.80;;;1.63;;
23768;SDS011;12064;50.890;5.424;2023-05-01T07:07:17;2.13;;;1.60;;
23768;SDS011;12064;50.890;5.424;2023-05-01T07:16:07;2.55;;;1.77;;
23768;SDS011;12064;50.890;5.424;2023-05-01T07:24:58;1.90;;;1.70;;
23768;SDS011;12064;50.890;5.424;2023-05-01T07:33:52;2.38;;;1.88;;
23768;SDS011;12064;50.890;5.424;2023-05-01T07:42:43;2.35;;;1.92;;
23768;SDS011;12064;50.890;5.424;2023-05-01T07:51:34;2.55;;;2.00;;
23768;SDS011;12064;50.890;5.424;2023-05-01T08:00:24;2.28;;;2.08;;
23768;SDS011;12064;50.890;5.424;2023-05-01T08:09:15;2.50;;;2.30;;
23768;SDS011;12064;50.890;5.424;2023-05-01T08:18:06;2.45;;;2.10;;
23768;SDS011;12064;50.890;5.424;2023-05-01T08:26:57;2.50;;;2.30;;
23768;SDS011;12064;50.890;5.424;2023-05-01T08:35:48;2.17;;;2.00;;
23768;SDS011;12064;50.890;5.424;2023-05-01T08:44:38;5.83;;;3.80;;
23768;SDS011;12064;50.890;5.424;2023-05-01T08:53:31;5.57;;;2.70;;
23768;SDS011;12064;50.890;5.424;2023-05-01T09:02:23;3.55;;;2.70;;
23768;SDS011;12064;50.890;5.424;2023-05-01T09:11:14;3.33;;;2.38;;
23768;SDS011;12064;50.890;5.424;2023-05-01T09:20:05;2.95;;;2.10;;
23768;SDS011;12064;50.890;5.424;2023-05-01T09:28:57;3.95;;;1.90;;
23768;SDS011;12064;50.890;5.424;2023-05-01T09:37:51;5.63;;;2.47;;
23768;SDS011;12064;50.890;5.424;2023-05-01T09:46:42;2.70;;;2.15;;
23768;SDS011;12064;50.890;5.424;2023-05-01T09:55:34;2.65;;;2.40;;
23768;SDS011;12064;50.890;5.424;2023-05-01T10:04:32;3.70;;;2.20;;
23768;SDS011;12064;50.890;5.424;2023-05-01T10:13:23;2.50;;;2.30;;
23768;SDS011;12064;50.890;5.424;2023-05-01T10:22:14;2.97;;;2.47;;
23768;SDS011;12064;50.890;5.424;2023-05-01T10:31:05;3.45;;;2.10;;
23768;SDS011;12064;50.890;5.424;2023-05-01T10:39:57;2.30;;;2.10;;
23768;SDS011;12064;50.890;5.424;2023-05-01T10:57:42;4.55;;;2.40;;
23768;SDS011;12064;50.890;5.424;2023-05-01T11:06:34;4.05;;;2.33;;
23768;SDS011;12064;50.890;5.424;2023-05-01T11:15:32;4.47;;;2.30;;
23768;SDS011;12064;50.890;5.424;2023-05-01T11:24:30;3.15;;;2.70;;
23768;SDS011;12064;50.890;5.424;2023-05-01T11:33:23;4.40;;;3.97;;
23768;SDS011;12064;50.890;5.424;2023-05-01T11:42:15;6.90;;;4.55;;
23768;SDS011;12064;50.890;5.424;2023-05-01T11:51:13;6.90;;;4.55;;
23768;SDS011;12064;50.890;5.424;2023-05-01T12:00:03;7.05;;;4.65;;
23768;SDS011;12064;50.890;5.424;2023-05-01T12:08:57;4.07;;;3.67;;
23768;SDS011;12064;50.890;5.424;2023-05-01T12:17:48;6.60;;;3.90;;
23768;SDS011;12064;50.890;5.424;2023-05-01T12:26:39;3.47;;;3.17;;
23768;SDS011;12064;50.890;5.424;2023-05-01T12:35:29;5.00;;;3.63;;
23768;SDS011;12064;50.890;5.424;2023-05-01T12:53:12;5.78;;;5.22;;
23768;SDS011;12064;50.890;5.424;2023-05-01T13:02:03;5.43;;;4.93;;
23768;SDS011;12064;50.890;5.424;2023-05-01T13:11:13;6.55;;;4.93;;
23768;SDS011;12064;50.890;5.424;2023-05-01T13:20:05;5.93;;;5.43;;
23768;SDS011;12064;50.890;5.424;2023-05-01T13:28:56;7.50;;;6.82;;
23768;SDS011;12064;50.890;5.424;2023-05-01T13:37:50;7.80;;;6.28;;
23768;SDS011;12064;50.890;5.424;2023-05-01T13:46:44;7.45;;;5.05;;
23768;SDS011;12064;50.890;5.424;2023-05-01T13:55:37;4.75;;;3.25;;
23768;SDS011;12064;50.890;5.424;2023-05-01T14:04:29;4.55;;;3.22;;
23768;SDS011;12064;50.890;5.424;2023-05-01T14:13:20;3.90;;;2.90;;
23768;SDS011;12064;50.890;5.424;2023-05-01T14:22:11;3.30;;;2.97;;
23768;SDS011;12064;50.890;5.424;2023-05-01T14:31:01;2.92;;;2.72;;
23768;SDS011;12064;50.890;5.424;2023-05-01T14:39:52;3.07;;;2.63;;
23768;SDS011;12064;50.890;5.424;2023-05-01T14:48:42;4.73;;;2.67;;
23768;SDS011;12064;50.890;5.424;2023-05-01T14:57:33;3.23;;;2.50;;
23768;SDS011;12064;50.890;5.424;2023-05-01T15:06:27;2.60;;;2.40;;
23768;SDS011;12064;50.890;5.424;2023-05-01T15:15:17;2.92;;;2.72;;
23768;SDS011;12064;50.890;5.424;2023-05-01T15:24:08;3.90;;;2.63;;
23768;SDS011;12064;50.890;5.424;2023-05-01T15:32:59;3.20;;;2.33;;
23768;SDS011;12064;50.890;5.424;2023-05-01T15:41:50;5.75;;;2.70;;
23768;SDS011;12064;50.890;5.424;2023-05-01T15:50:41;4.50;;;2.38;;
23768;SDS011;12064;50.890;5.424;2023-05-01T15:59:32;2.60;;;2.40;;
23768;SDS011;12064;50.890;5.424;2023-05-01T16:08:22;2.67;;;2.30;;
23768;SDS011;12064;50.890;5.424;2023-05-01T16:17:14;3.10;;;2.43;;
23768;SDS011;12064;50.890;5.424;2023-05-01T16:26:08;2.80;;;2.60;;
23768;SDS011;12064;50.890;5.424;2023-05-01T16:34:59;2.70;;;2.50;;
23768;SDS011;12064;50.890;5.424;2023-05-01T16:43:50;2.58;;;2.38;;
23768;SDS011;12064;50.890;5.424;2023-05-01T16:52:41;2.65;;;2.45;;
23768;SDS011;12064;50.890;5.424;2023-05-01T17:01:33;3.03;;;2.83;;
23768;SDS011;12064;50.890;5.424;2023-05-01T17:10:24;3.05;;;2.85;;
23768;SDS011;12064;50.890;5.424;2023-05-01T17:19:14;2.75;;;2.55;;
23768;SDS011;12064;50.890;5.424;2023-05-01T17:28:05;2.77;;;2.57;;
23768;SDS011;12064;50.890;5.424;2023-05-01T17:36:56;2.43;;;2.33;;
23768;SDS011;12064;50.890;5.424;2023-05-01T17:45:47;2.70;;;2.50;;
23768;SDS011;12064;50.890;5.424;2023-05-01T17:54:39;2.90;;;2.70;;
23768;SDS011;12064;50.890;5.424;2023-05-01T18:03:29;2.57;;;2.37;;
23768;SDS011;12064;50.890;5.424;2023-05-01T18:12:23;3.30;;;3.00;;
23768;SDS011;12064;50.890;5.424;2023-05-01T18:21:14;2.22;;;2.13;;
23768;SDS011;12064;50.890;5.424;2023-05-01T18:30:06;2.55;;;2.33;;
23768;SDS011;12064;50.890;5.424;2023-05-01T18:38:57;2.42;;;2.20;;
23768;SDS011;12064;50.890;5.424;2023-05-01T18:47:47;3.40;;;2.88;;
23768;SDS011;12064;50.890;5.424;2023-05-01T18:56:38;2.70;;;2.50;;
23768;SDS011;12064;50.890;5.424;2023-05-01T19:05:31;2.60;;;2.40;;
23768;SDS011;12064;50.890;5.424;2023-05-01T19:14:22;2.50;;;2.30;;
23768;SDS011;12064;50.890;5.424;2023-05-01T19:23:13;2.63;;;2.40;;
23768;SDS011;12064;50.890;5.424;2023-05-01T19:32:04;2.40;;;2.20;;
23768;SDS011;12064;50.890;5.424;2023-05-01T19:40:56;2.50;;;2.30;;
23768;SDS011;12064;50.890;5.424;2023-05-01T19:49:46;2.80;;;2.50;;
23768;SDS011;12064;50.890;5.424;2023-05-01T19:58:37;4.83;;;2.77;;
23768;SDS011;12064;50.890;5.424;2023-05-01T20:07:28;3.15;;;2.50;;
23768;SDS011;12064;50.890;5.424;2023-05-01T20:16:19;2.60;;;2.40;;
23768;SDS011;12064;50.890;5.424;2023-05-01T20:25:09;2.70;;;2.50;;
23768;SDS011;12064;50.890;5.424;2023-05-01T20:34:02;2.70;;;2.50;;
23768;SDS011;12064;50.890;5.424;2023-05-01T20:42:56;2.60;;;2.10;;
23768;SDS011;12064;50.890;5.424;2023-05-01T20:51:48;2.67;;;2.47;;
23768;SDS011;12064;50.890;5.424;2023-05-01T21:00:39;2.50;;;2.30;;
23768;SDS011;12064;50.890;5.424;2023-05-01T21:09:31;2.75;;;2.55;;
23768;SDS011;12064;50.890;5.424;2023-05-01T21:18:22;2.53;;;2.30;;
23768;SDS011;12064;50.890;5.424;2023-05-01T21:27:13;2.30;;;2.08;;
23768;SDS011;12064;50.890;5.424;2023-05-01T21:36:04;3.00;;;2.50;;
23768;SDS011;12064;50.890;5.424;2023-05-01T21:44:58;2.42;;;2.22;;
23768;SDS011;12064;50.890;5.424;2023-05-01T21:53:49;2.67;;;2.47;;
23768;SDS011;12064;50.890;5.424;2023-05-01T22:02:41;2.60;;;2.40;;
23768;SDS011;12064;50.890;5.424;2023-05-01T22:11:33;2.72;;;2.53;;
23768;SDS011;12064;50.890;5.424;2023-05-01T22:20:25;2.77;;;2.47;;
23768;SDS011;12064;50.890;5.424;2023-05-01T22:29:15;3.05;;;2.80;;
23768;SDS011;12064;50.890;5.424;2023-05-01T22:38:08;2.70;;;2.50;;
23768;SDS011;12064;50.890;5.424;2023-05-01T22:46:59;2.70;;;2.30;;
23768;SDS011;12064;50.890;5.424;2023-05-01T22:55:50;2.75;;;2.33;;
23768;SDS011;12064;50.890;5.424;2023-05-01T23:04:41;2.80;;;2.60;;
23768;SDS011;12064;50.890;5.424;2023-05-01T23:13:32;2.75;;;2.55;;
23768;SDS011;12064;50.890;5.424;2023-05-01T23:22:22;3.00;;;2.80;;
23768;SDS011;12064;50.890;5.424;2023-05-01T23:31:17;2.80;;;2.60;;
23768;SDS011;12064;50.890;5.424;2023-05-01T23:40:13;3.97;;;2.60;;
23768;SDS011;12064;50.890;5.424;2023-05-01T23:49:04;2.72;;;2.53;;
23768;SDS011;12064;50.890;5.424;2023-05-01T23:57:55;2.60;;;2.40;;
